createdAt,value
2016-07-13T00:00:30.025Z,0
2016-07-13T00:01:30.050Z,0
2016-07-13T00:02:30.063Z,0
2016-07-13T00:03:30.079Z,0
2016-07-13T00:04:30.100Z,0
2016-07-13T00:05:30.133Z,0
2016-07-13T00:06:30.139Z,0
2016-07-13T00:07:30.153Z,0
2016-07-13T00:08:30.193Z,0
2016-07-13T00:09:30.935Z,0
2016-07-13T00:10:30.225Z,0
2016-07-13T00:11:30.251Z,0
2016-07-13T00:12:30.266Z,0
2016-07-13T00:13:30.280Z,0
2016-07-13T00:14:30.317Z,0
2016-07-13T00:15:30.337Z,0
2016-07-13T00:16:30.342Z,0
2016-07-13T00:17:30.377Z,0
2016-07-13T00:18:30.386Z,0
2016-07-13T00:19:30.407Z,0
2016-07-13T00:20:30.426Z,0
2016-07-13T00:21:30.439Z,0
2016-07-13T00:22:30.475Z,0
2016-07-13T00:23:30.478Z,0
2016-07-13T00:24:30.507Z,0
2016-07-13T00:25:30.527Z,0
2016-07-13T00:26:30.560Z,0
2016-07-13T00:27:30.573Z,0
2016-07-13T00:28:30.588Z,0
2016-07-13T00:29:30.603Z,0
2016-07-13T00:30:30.620Z,0
2016-07-13T00:31:30.648Z,0
2016-07-13T00:32:30.680Z,0
2016-07-13T00:33:30.686Z,0
2016-07-13T00:34:30.706Z,0
2016-07-13T00:35:30.727Z,0
2016-07-13T00:36:30.740Z,0
2016-07-13T00:37:30.779Z,0
2016-07-13T00:38:30.786Z,0
2016-07-13T00:39:30.810Z,0
2016-07-13T00:40:30.823Z,0
2016-07-13T00:41:30.857Z,0
2016-07-13T00:42:30.866Z,0
2016-07-13T00:43:30.885Z,0
2016-07-13T00:44:30.912Z,0
2016-07-13T00:45:30.930Z,0
2016-07-13T00:46:30.939Z,0
2016-07-13T00:47:30.967Z,0
2016-07-13T00:48:30.996Z,0
2016-07-13T00:49:31.012Z,0
2016-07-13T00:50:31.034Z,0
2016-07-13T00:51:31.048Z,0
2016-07-13T00:52:31.087Z,0
2016-07-13T00:53:31.105Z,0
2016-07-13T00:54:31.107Z,0
2016-07-13T00:55:31.138Z,0
2016-07-13T00:56:31.150Z,0
2016-07-13T00:57:31.159Z,0
2016-07-13T00:58:31.207Z,0
2016-07-13T00:59:31.215Z,0
2016-07-13T01:00:31.226Z,0
2016-07-13T01:01:31.246Z,0
2016-07-13T01:02:31.270Z,0
2016-07-13T01:03:31.300Z,0
2016-07-13T01:04:31.312Z,0
2016-07-13T01:05:31.335Z,0
2016-07-13T01:06:31.359Z,0
2016-07-13T01:07:31.372Z,0
2016-07-13T01:08:31.381Z,0
2016-07-13T01:09:31.424Z,0
2016-07-13T01:10:31.440Z,0
2016-07-13T01:11:31.447Z,0
2016-07-13T01:12:31.475Z,0
2016-07-13T01:13:31.490Z,0
2016-07-13T01:14:31.510Z,0
2016-07-13T01:15:31.538Z,0
2016-07-13T01:16:31.554Z,0
2016-07-13T01:17:31.574Z,0
2016-07-13T01:18:31.588Z,0
2016-07-13T01:19:31.612Z,0
2016-07-13T01:20:31.640Z,0
2016-07-13T01:21:31.652Z,0
2016-07-13T01:22:31.667Z,0
2016-07-13T01:23:31.688Z,0
2016-07-13T01:24:31.705Z,0
2016-07-13T01:25:31.739Z,0
2016-07-13T01:26:31.760Z,0
2016-07-13T01:27:31.771Z,0
2016-07-13T01:28:31.789Z,0
2016-07-13T01:29:31.817Z,0
2016-07-13T01:30:31.826Z,0
2016-07-13T01:31:31.858Z,0
2016-07-13T01:32:31.873Z,0
2016-07-13T01:33:31.896Z,0
2016-07-13T01:34:31.918Z,0
2016-07-13T01:35:31.931Z,0
2016-07-13T01:36:31.955Z,0
2016-07-13T01:37:31.979Z,0
2016-07-13T01:38:31.995Z,0
2016-07-13T01:39:32.005Z,0
2016-07-13T01:40:32.037Z,0
2016-07-13T01:41:32.066Z,0
2016-07-13T01:42:32.070Z,0
2016-07-13T01:43:32.098Z,0
2016-07-13T01:44:32.115Z,0
2016-07-13T01:45:32.130Z,0
2016-07-13T01:46:32.155Z,0
2016-07-13T01:47:32.168Z,0
2016-07-13T01:48:32.196Z,0
2016-07-13T01:49:32.210Z,0
2016-07-13T01:50:32.227Z,0
2016-07-13T01:51:32.251Z,0
2016-07-13T01:52:32.262Z,0
2016-07-13T01:53:32.297Z,0
2016-07-13T01:54:32.313Z,0
2016-07-13T01:55:32.331Z,0
2016-07-13T01:56:32.341Z,0
2016-07-13T01:57:32.385Z,0
2016-07-13T01:58:32.405Z,0
2016-07-13T01:59:32.404Z,0
2016-07-13T02:00:32.435Z,0
2016-07-13T02:01:32.447Z,0
2016-07-13T02:02:32.470Z,0
2016-07-13T02:03:32.490Z,0
2016-07-13T02:04:32.506Z,0
2016-07-13T02:05:32.521Z,0
2016-07-13T02:06:32.538Z,0
2016-07-13T02:07:32.574Z,0
2016-07-13T02:08:32.591Z,0
2016-07-13T02:09:32.604Z,0
2016-07-13T02:10:32.627Z,0
2016-07-13T02:11:32.643Z,0
2016-07-13T02:12:32.667Z,0
2016-07-13T02:13:32.681Z,0
2016-07-13T02:14:32.702Z,0
2016-07-13T02:15:32.723Z,0
2016-07-13T02:16:32.744Z,0
2016-07-13T02:17:32.779Z,0
2016-07-13T02:18:32.786Z,0
2016-07-13T02:19:32.807Z,0
2016-07-13T02:20:32.842Z,0
2016-07-13T02:21:32.838Z,0
2016-07-13T02:22:32.866Z,0
2016-07-13T02:23:32.882Z,0
2016-07-13T02:24:32.902Z,0
2016-07-13T02:25:32.926Z,0
2016-07-13T02:26:32.940Z,0
2016-07-13T02:27:32.969Z,0
2016-07-13T02:28:32.983Z,0
2016-07-13T02:29:32.993Z,0
2016-07-13T02:30:33.016Z,0
2016-07-13T02:31:33.040Z,0
2016-07-13T02:32:33.072Z,0
2016-07-13T02:33:33.073Z,0
2016-07-13T02:34:33.100Z,0
2016-07-13T02:35:33.116Z,0
2016-07-13T02:36:33.144Z,0
2016-07-13T02:37:33.147Z,0
2016-07-13T02:38:33.188Z,4
2016-07-13T02:39:33.199Z,4
2016-07-13T02:40:33.216Z,4
2016-07-13T02:41:33.229Z,0
2016-07-13T02:42:33.261Z,0
2016-07-13T02:43:33.258Z,4
2016-07-13T02:44:33.293Z,4
2016-07-13T02:45:33.314Z,4
2016-07-13T02:46:33.342Z,4
2016-07-13T02:47:33.348Z,4
2016-07-13T02:48:33.366Z,4
2016-07-13T02:49:33.385Z,8
2016-07-13T02:50:33.417Z,4
2016-07-13T02:51:33.437Z,8
2016-07-13T02:52:33.447Z,8
2016-07-13T02:53:33.465Z,12
2016-07-13T02:54:33.492Z,12
2016-07-13T02:55:33.505Z,12
2016-07-13T02:56:33.524Z,16
2016-07-13T02:57:33.548Z,16
2016-07-13T02:58:33.555Z,16
2016-07-13T02:59:33.578Z,16
2016-07-13T03:00:33.613Z,20
2016-07-13T03:01:33.620Z,20
2016-07-13T03:02:33.644Z,24
2016-07-13T03:03:33.654Z,28
2016-07-13T03:04:33.688Z,32
2016-07-13T03:05:33.708Z,36
2016-07-13T03:06:33.714Z,40
2016-07-13T03:07:33.747Z,40
2016-07-13T03:08:33.761Z,44
2016-07-13T03:09:33.774Z,48
2016-07-13T03:10:33.800Z,52
2016-07-13T03:11:33.813Z,56
2016-07-13T03:12:33.841Z,60
2016-07-13T03:13:33.863Z,64
2016-07-13T03:14:33.877Z,68
2016-07-13T03:15:33.895Z,76
2016-07-13T03:16:33.906Z,84
2016-07-13T03:17:33.930Z,92
2016-07-13T03:18:33.951Z,104
2016-07-13T03:19:33.971Z,112
2016-07-13T03:20:33.991Z,120
2016-07-13T03:21:34.008Z,136
2016-07-13T03:22:34.034Z,144
2016-07-13T03:23:34.039Z,156
2016-07-13T03:24:34.079Z,164
2016-07-13T03:25:34.086Z,176
2016-07-13T03:26:34.108Z,184
2016-07-13T03:27:34.126Z,196
2016-07-13T03:28:34.153Z,208
2016-07-13T03:29:34.171Z,220
2016-07-13T03:30:34.184Z,236
2016-07-13T03:31:34.213Z,244
2016-07-13T03:32:34.224Z,240
2016-07-13T03:33:34.249Z,232
2016-07-13T03:34:34.272Z,224
2016-07-13T03:35:34.278Z,208
2016-07-13T03:36:34.300Z,188
2016-07-13T03:37:34.319Z,176
2016-07-13T03:38:34.347Z,172
2016-07-13T03:39:34.366Z,168
2016-07-13T03:40:34.379Z,172
2016-07-13T03:41:34.395Z,176
2016-07-13T03:42:34.411Z,180
2016-07-13T03:43:34.445Z,188
2016-07-13T03:44:34.459Z,200
2016-07-13T03:45:34.477Z,212
2016-07-13T03:46:34.486Z,220
2016-07-13T03:47:34.510Z,232
2016-07-13T03:48:34.540Z,236
2016-07-13T03:49:34.546Z,240
2016-07-13T03:50:34.570Z,248
2016-07-13T03:51:34.601Z,260
2016-07-13T03:52:34.613Z,276
2016-07-13T03:53:34.625Z,292
2016-07-13T03:54:34.653Z,316
2016-07-13T03:55:34.674Z,344
2016-07-13T03:56:34.685Z,372
2016-07-13T03:57:34.710Z,400
2016-07-13T03:58:34.725Z,424
2016-07-13T03:59:34.739Z,448
2016-07-13T04:00:34.771Z,464
2016-07-13T04:01:34.786Z,472
2016-07-13T04:02:34.797Z,484
2016-07-13T04:03:34.819Z,504
2016-07-13T04:04:34.834Z,524
2016-07-13T04:05:34.862Z,536
2016-07-13T04:06:34.889Z,528
2016-07-13T04:07:34.903Z,516
2016-07-13T04:08:34.916Z,504
2016-07-13T04:09:34.937Z,476
2016-07-13T04:10:34.967Z,452
2016-07-13T04:11:34.968Z,452
2016-07-13T04:12:35.004Z,460
2016-07-13T04:13:35.014Z,464
2016-07-13T04:14:35.033Z,476
2016-07-13T04:15:35.043Z,488
2016-07-13T04:16:35.081Z,484
2016-07-13T04:17:35.098Z,484
2016-07-13T04:18:35.110Z,492
2016-07-13T04:19:35.126Z,500
2016-07-13T04:20:35.153Z,504
2016-07-13T04:21:35.158Z,504
2016-07-13T04:22:35.198Z,496
2016-07-13T04:23:35.200Z,500
2016-07-13T04:24:35.226Z,500
2016-07-13T04:25:35.243Z,532
2016-07-13T04:26:35.269Z,580
2016-07-13T04:27:35.290Z,640
2016-07-13T04:28:35.307Z,720
2016-07-13T04:29:35.321Z,792
2016-07-13T04:30:35.332Z,876
2016-07-13T04:31:35.366Z,972
2016-07-13T04:32:35.384Z,1072
2016-07-13T04:33:35.403Z,1176
2016-07-13T04:34:35.417Z,1276
2016-07-13T04:35:35.438Z,1324
2016-07-13T04:36:35.471Z,1340
2016-07-13T04:37:35.475Z,1312
2016-07-13T04:38:35.497Z,1276
2016-07-13T04:39:35.525Z,1244
2016-07-13T04:40:35.536Z,1188
2016-07-13T04:41:35.544Z,1060
2016-07-13T04:42:35.584Z,892
2016-07-13T04:43:35.596Z,764
2016-07-13T04:44:35.613Z,660
2016-07-13T04:45:35.638Z,564
2016-07-13T04:46:35.660Z,496
2016-07-13T04:47:35.669Z,480
2016-07-13T04:48:35.694Z,496
2016-07-13T04:49:35.717Z,516
2016-07-13T04:50:35.742Z,548
2016-07-13T04:51:35.760Z,612
2016-07-13T04:52:35.760Z,708
2016-07-13T04:53:35.793Z,796
2016-07-13T04:54:35.807Z,888
2016-07-13T04:55:35.831Z,1000
2016-07-13T04:56:35.843Z,1092
2016-07-13T04:57:35.873Z,1228
2016-07-13T04:58:35.883Z,1268
2016-07-13T04:59:35.910Z,1096
2016-07-13T05:00:35.936Z,936
2016-07-13T05:01:35.940Z,872
2016-07-13T05:02:35.965Z,888
2016-07-13T05:03:35.974Z,932
2016-07-13T05:04:36.016Z,980
2016-07-13T05:05:36.028Z,1020
2016-07-13T05:06:36.037Z,1048
2016-07-13T05:07:36.070Z,1064
2016-07-13T05:08:36.083Z,1080
2016-07-13T05:09:36.101Z,1128
2016-07-13T05:10:36.128Z,1232
2016-07-13T05:11:36.143Z,1404
2016-07-13T05:12:36.144Z,1628
2016-07-13T05:13:36.176Z,1824
2016-07-13T05:14:36.204Z,1976
2016-07-13T05:15:36.263Z,2116
2016-07-13T05:16:36.239Z,2268
2016-07-13T05:17:36.256Z,2340
2016-07-13T05:18:36.269Z,2444
2016-07-13T05:19:36.310Z,2480
2016-07-13T05:20:36.313Z,2404
2016-07-13T05:21:36.334Z,2264
2016-07-13T05:22:36.348Z,2176
2016-07-13T05:23:36.381Z,2216
2016-07-13T05:24:36.390Z,2332
2016-07-13T05:25:36.414Z,2356
2016-07-13T05:26:36.433Z,2372
2016-07-13T05:27:36.454Z,2296
2016-07-13T05:28:36.469Z,2176
2016-07-13T05:29:36.486Z,2148
2016-07-13T05:30:36.518Z,2092
2016-07-13T05:31:36.536Z,2136
2016-07-13T05:32:36.553Z,2308
2016-07-13T05:33:36.571Z,2548
2016-07-13T05:34:36.595Z,2772
2016-07-13T05:35:36.600Z,2956
2016-07-13T05:36:36.628Z,3064
2016-07-13T05:37:36.650Z,3168
2016-07-13T05:38:36.664Z,3396
2016-07-13T05:39:36.695Z,3800
2016-07-13T05:40:36.712Z,4364
2016-07-13T05:41:36.729Z,4892
2016-07-13T05:42:36.744Z,5356
2016-07-13T05:43:36.775Z,5520
2016-07-13T05:44:36.781Z,5644
2016-07-13T05:45:36.808Z,5848
2016-07-13T05:46:36.822Z,6120
2016-07-13T05:47:36.839Z,6508
2016-07-13T05:48:36.871Z,6816
2016-07-13T05:49:36.881Z,6828
2016-07-13T05:50:36.898Z,6316
2016-07-13T05:51:36.914Z,5464
2016-07-13T05:52:36.945Z,5116
2016-07-13T05:53:36.966Z,4924
2016-07-13T05:54:36.969Z,4820
2016-07-13T05:55:37.009Z,4732
2016-07-13T05:56:37.015Z,4696
2016-07-13T05:57:37.050Z,4584
2016-07-13T05:58:37.057Z,4320
2016-07-13T05:59:37.083Z,4196
2016-07-13T06:00:37.101Z,4272
2016-07-13T06:01:37.127Z,4400
2016-07-13T06:02:37.147Z,4544
2016-07-13T06:03:37.160Z,4692
2016-07-13T06:04:37.192Z,5004
2016-07-13T06:05:37.201Z,5352
2016-07-13T06:06:37.218Z,5892
2016-07-13T06:07:37.236Z,6236
2016-07-13T06:08:37.269Z,6180
2016-07-13T06:09:37.287Z,6076
2016-07-13T06:10:37.297Z,6664
2016-07-13T06:11:37.320Z,6708
2016-07-13T06:12:37.344Z,6456
2016-07-13T06:13:37.367Z,6368
2016-07-13T06:14:37.383Z,5908
2016-07-13T06:15:37.411Z,5712
2016-07-13T06:16:37.483Z,5756
2016-07-13T06:17:37.436Z,5908
2016-07-13T06:18:37.467Z,5956
2016-07-13T06:19:37.484Z,6240
2016-07-13T06:20:37.504Z,6468
2016-07-13T06:21:37.526Z,6320
2016-07-13T06:22:37.544Z,6528
2016-07-13T06:23:37.563Z,6840
2016-07-13T06:24:37.593Z,7232
2016-07-13T06:25:37.611Z,7472
2016-07-13T06:26:37.625Z,7432
2016-07-13T06:27:37.654Z,7216
2016-07-13T06:28:37.666Z,6928
2016-07-13T06:29:37.682Z,6812
2016-07-13T06:30:37.711Z,6796
2016-07-13T06:31:37.738Z,6620
2016-07-13T06:32:37.746Z,6412
2016-07-13T06:33:37.765Z,6392
2016-07-13T06:34:37.792Z,6488
2016-07-13T06:35:37.814Z,6580
2016-07-13T06:36:37.828Z,6820
2016-07-13T06:37:37.854Z,7072
2016-07-13T06:38:37.869Z,7160
2016-07-13T06:39:37.893Z,7180
2016-07-13T06:40:37.915Z,7228
2016-07-13T06:41:37.947Z,7284
2016-07-13T06:42:37.955Z,7180
2016-07-13T06:43:37.981Z,7160
2016-07-13T06:44:37.998Z,7372
2016-07-13T06:45:38.016Z,7668
2016-07-13T06:46:38.036Z,8148
2016-07-13T06:47:38.062Z,8236
2016-07-13T06:48:38.082Z,8012
2016-07-13T06:49:38.103Z,7920
2016-07-13T06:50:38.113Z,7756
2016-07-13T06:51:38.143Z,7648
2016-07-13T06:52:38.168Z,7252
2016-07-13T06:53:38.186Z,6952
2016-07-13T06:54:38.211Z,6684
2016-07-13T06:55:38.216Z,6388
2016-07-13T06:56:38.250Z,6088
2016-07-13T06:57:38.272Z,5640
2016-07-13T06:58:38.289Z,5156
2016-07-13T06:59:38.303Z,4888
2016-07-13T07:00:38.319Z,4880
2016-07-13T07:01:38.353Z,5096
2016-07-13T07:02:38.373Z,5448
2016-07-13T07:03:38.388Z,5976
2016-07-13T07:04:38.407Z,6528
2016-07-13T07:05:38.444Z,7012
2016-07-13T07:06:38.454Z,7080
2016-07-13T07:07:38.480Z,6956
2016-07-13T07:08:38.495Z,6656
2016-07-13T07:09:38.504Z,6368
2016-07-13T07:10:38.536Z,6492
2016-07-13T07:11:38.557Z,6964
2016-07-13T07:12:38.579Z,7560
2016-07-13T07:13:38.599Z,8520
2016-07-13T07:14:38.616Z,8192
2016-07-13T07:15:38.638Z,9156
2016-07-13T07:16:38.651Z,9612
2016-07-13T07:17:38.677Z,9412
2016-07-13T07:18:38.696Z,10096
2016-07-13T07:19:38.718Z,10324
2016-07-13T07:20:38.740Z,8808
2016-07-13T07:21:38.768Z,8840
2016-07-13T07:22:38.778Z,7100
2016-07-13T07:23:38.808Z,7060
2016-07-13T07:24:38.828Z,8600
2016-07-13T07:25:38.853Z,8452
2016-07-13T07:26:38.869Z,8132
2016-07-13T07:27:38.891Z,6652
2016-07-13T07:28:38.907Z,7500
2016-07-13T07:29:38.930Z,8104
2016-07-13T07:30:38.962Z,7928
2016-07-13T07:31:38.975Z,8068
2016-07-13T07:32:38.993Z,6024
2016-07-13T07:33:39.021Z,5764
2016-07-13T07:34:39.030Z,5712
2016-07-13T07:35:39.063Z,7952
2016-07-13T07:36:39.082Z,8352
2016-07-13T07:37:39.098Z,6468
2016-07-13T07:38:39.126Z,7780
2016-07-13T07:39:39.155Z,7996
2016-07-13T07:40:39.170Z,8136
2016-07-13T07:41:39.186Z,8124
2016-07-13T07:42:39.217Z,8340
2016-07-13T07:43:39.224Z,8672
2016-07-13T07:44:39.250Z,9256
2016-07-13T07:45:39.270Z,8916
2016-07-13T07:46:39.314Z,9048
2016-07-13T07:47:39.312Z,8552
2016-07-13T07:48:39.327Z,9076
2016-07-13T07:49:39.365Z,6548
2016-07-13T07:50:39.376Z,7092
2016-07-13T07:51:39.399Z,8016
2016-07-13T07:52:39.416Z,5508
2016-07-13T07:53:39.449Z,5480
2016-07-13T07:54:39.454Z,6888
2016-07-13T07:55:39.488Z,8216
2016-07-13T07:56:39.500Z,8396
2016-07-13T07:57:39.533Z,8788
2016-07-13T07:58:39.546Z,8684
2016-07-13T07:59:39.571Z,9224
2016-07-13T08:00:39.591Z,8292
2016-07-13T08:01:39.615Z,9912
2016-07-13T08:02:39.633Z,9912
2016-07-13T08:03:39.658Z,8616
2016-07-13T08:04:39.670Z,8368
2016-07-13T08:05:39.703Z,8340
2016-07-13T08:06:39.719Z,8184
2016-07-13T08:07:39.757Z,8044
2016-07-13T08:08:39.763Z,9244
2016-07-13T08:09:39.800Z,10192
2016-07-13T08:10:39.815Z,10156
2016-07-13T08:11:39.830Z,9880
2016-07-13T08:12:39.857Z,7116
2016-07-13T08:13:39.867Z,6864
2016-07-13T08:14:39.891Z,6748
2016-07-13T08:15:39.912Z,6856
2016-07-13T08:16:39.936Z,6912
2016-07-13T08:17:39.958Z,9680
2016-07-13T08:18:39.982Z,9316
2016-07-13T08:19:39.992Z,9288
2016-07-13T08:20:40.038Z,9508
2016-07-13T08:21:40.042Z,9560
2016-07-13T08:22:40.074Z,8172
2016-07-13T08:23:40.081Z,10176
2016-07-13T08:24:40.107Z,9572
2016-07-13T08:25:40.136Z,8416
2016-07-13T08:26:40.159Z,7936
2016-07-13T08:27:40.174Z,7976
2016-07-13T08:28:40.192Z,8820
2016-07-13T08:29:40.221Z,11340
2016-07-13T08:30:40.251Z,11200
2016-07-13T08:31:40.259Z,10864
2016-07-13T08:32:40.286Z,10288
2016-07-13T08:33:40.302Z,9764
2016-07-13T08:34:40.330Z,9252
2016-07-13T08:35:40.347Z,10808
2016-07-13T08:36:40.380Z,8336
2016-07-13T08:37:40.394Z,10896
2016-07-13T08:38:40.423Z,11080
2016-07-13T08:39:40.440Z,10976
2016-07-13T08:40:40.452Z,9952
2016-07-13T08:41:40.498Z,8320
2016-07-13T08:42:40.503Z,9716
2016-07-13T08:43:40.525Z,7816
2016-07-13T08:44:40.545Z,7296
2016-07-13T08:45:40.576Z,6868
2016-07-13T08:46:40.603Z,6740
2016-07-13T08:47:40.626Z,6772
2016-07-13T08:48:40.629Z,7184
2016-07-13T08:49:40.668Z,7508
2016-07-13T08:50:40.691Z,7780
2016-07-13T08:51:40.702Z,8076
2016-07-13T08:52:40.727Z,10936
2016-07-13T08:53:40.754Z,10936
2016-07-13T08:54:40.774Z,10928
2016-07-13T08:55:40.800Z,10816
2016-07-13T08:56:40.813Z,10660
2016-07-13T08:57:40.851Z,8204
2016-07-13T08:58:40.864Z,9988
2016-07-13T08:59:40.889Z,9312
2016-07-13T09:00:40.909Z,6896
2016-07-13T09:01:40.944Z,9060
2016-07-13T09:02:40.958Z,7964
2016-07-13T09:03:40.981Z,7776
2016-07-13T09:04:40.992Z,5692
2016-07-13T09:05:41.027Z,5736
2016-07-13T09:06:41.030Z,5764
2016-07-13T09:07:41.068Z,5964
2016-07-13T09:08:41.085Z,9160
2016-07-13T09:09:41.116Z,9428
2016-07-13T09:10:41.122Z,9464
2016-07-13T09:11:41.152Z,9636
2016-07-13T09:12:41.183Z,9920
2016-07-13T09:13:41.198Z,10056
2016-07-13T09:14:41.216Z,9960
2016-07-13T09:15:41.238Z,9904
2016-07-13T09:16:41.270Z,7432
2016-07-13T09:17:41.276Z,6740
2016-07-13T09:18:41.301Z,6792
2016-07-13T09:19:41.337Z,6712
2016-07-13T09:20:41.353Z,6684
2016-07-13T09:21:41.380Z,9044
2016-07-13T09:22:41.398Z,9144
2016-07-13T09:23:41.414Z,7020
2016-07-13T09:24:41.441Z,5956
2016-07-13T09:25:41.462Z,5868
2016-07-13T09:26:41.477Z,5932
2016-07-13T09:27:41.512Z,6268
2016-07-13T09:28:41.530Z,8684
2016-07-13T09:29:41.541Z,8420
2016-07-13T09:30:41.578Z,8840
2016-07-13T09:31:41.592Z,6288
2016-07-13T09:32:41.615Z,6180
2016-07-13T09:33:41.634Z,6352
2016-07-13T09:34:41.663Z,9432
2016-07-13T09:35:41.684Z,9636
2016-07-13T09:36:41.719Z,9916
2016-07-13T09:37:41.721Z,10068
2016-07-13T09:38:41.743Z,10188
2016-07-13T09:39:41.761Z,10184
2016-07-13T09:40:41.780Z,10308
2016-07-13T09:41:41.819Z,10424
2016-07-13T09:42:41.833Z,10492
2016-07-13T09:43:41.845Z,10072
2016-07-13T09:44:41.884Z,9776
2016-07-13T09:45:41.896Z,9480
2016-07-13T09:46:41.923Z,9464
2016-07-13T09:47:41.933Z,9740
2016-07-13T09:48:41.968Z,9832
2016-07-13T09:49:41.995Z,9320
2016-07-13T09:50:42.014Z,7168
2016-07-13T09:51:42.025Z,5760
2016-07-13T09:52:42.060Z,5692
2016-07-13T09:53:42.081Z,5732
2016-07-13T09:54:42.103Z,8852
2016-07-13T09:55:42.132Z,5752
2016-07-13T09:56:42.141Z,6944
2016-07-13T09:57:42.171Z,8812
2016-07-13T09:58:42.179Z,7008
2016-07-13T09:59:42.213Z,5696
2016-07-13T10:00:42.232Z,5804
2016-07-13T10:01:42.260Z,5944
2016-07-13T10:02:42.274Z,8464
2016-07-13T10:03:42.296Z,5980
2016-07-13T10:04:42.331Z,6296
2016-07-13T10:05:42.339Z,7832
2016-07-13T10:06:42.373Z,9112
2016-07-13T10:07:42.391Z,9048
2016-07-13T10:08:42.413Z,8984
2016-07-13T10:09:42.440Z,9012
2016-07-13T10:10:42.452Z,9132
2016-07-13T10:11:42.484Z,9368
2016-07-13T10:12:42.495Z,9476
2016-07-13T10:13:42.537Z,9480
2016-07-13T10:14:42.547Z,9388
2016-07-13T10:15:42.578Z,9400
2016-07-13T10:16:42.592Z,7948
2016-07-13T10:17:42.618Z,8736
2016-07-13T10:18:42.639Z,7384
2016-07-13T10:19:42.657Z,6764
2016-07-13T10:20:42.683Z,9948
2016-07-13T10:21:42.715Z,10188
2016-07-13T10:22:42.724Z,10496
2016-07-13T10:23:42.736Z,8060
2016-07-13T10:24:42.764Z,7892
2016-07-13T10:25:42.797Z,8032
2016-07-13T10:26:42.814Z,11104
2016-07-13T10:27:42.831Z,10924
2016-07-13T10:28:42.875Z,9588
2016-07-13T10:29:42.889Z,8092
2016-07-13T10:30:42.899Z,10980
2016-07-13T10:31:42.934Z,7992
2016-07-13T10:32:42.950Z,11100
2016-07-13T10:33:42.962Z,11264
2016-07-13T10:34:42.997Z,11000
2016-07-13T10:35:43.010Z,10608
2016-07-13T10:36:43.045Z,10276
2016-07-13T10:37:43.058Z,6952
2016-07-13T10:38:43.084Z,6992
2016-07-13T10:39:43.107Z,8252
2016-07-13T10:40:43.148Z,7112
2016-07-13T10:41:43.154Z,9060
2016-07-13T10:42:43.173Z,10000
2016-07-13T10:43:43.198Z,6916
2016-07-13T10:44:43.222Z,9584
2016-07-13T10:45:43.242Z,6976
2016-07-13T10:46:43.261Z,9840
2016-07-13T10:47:43.284Z,9964
2016-07-13T10:48:43.302Z,10108
2016-07-13T10:49:43.333Z,10148
2016-07-13T10:50:43.354Z,10112
2016-07-13T10:51:43.368Z,10144
2016-07-13T10:52:43.394Z,10156
2016-07-13T10:53:43.424Z,10120
2016-07-13T10:54:43.455Z,10040
2016-07-13T10:55:43.458Z,10068
2016-07-13T10:56:43.484Z,10136
2016-07-13T10:57:43.513Z,10188
2016-07-13T10:58:43.543Z,10156
2016-07-13T10:59:43.556Z,10164
2016-07-13T11:00:43.583Z,10260
2016-07-13T11:01:43.600Z,10452
2016-07-13T11:02:43.626Z,10624
2016-07-13T11:03:43.665Z,10888
2016-07-13T11:04:43.671Z,10744
2016-07-13T11:05:43.693Z,10532
2016-07-13T11:06:43.715Z,10332
2016-07-13T11:07:43.741Z,9752
2016-07-13T11:08:43.761Z,10364
2016-07-13T11:09:43.793Z,10520
2016-07-13T11:10:43.817Z,10532
2016-07-13T11:11:43.833Z,10608
2016-07-13T11:12:43.856Z,10652
2016-07-13T11:13:43.876Z,10612
2016-07-13T11:14:43.902Z,10564
2016-07-13T11:15:43.926Z,10188
2016-07-13T11:16:43.949Z,9980
2016-07-13T11:17:43.979Z,7524
2016-07-13T11:18:43.997Z,7376
2016-07-13T11:19:44.017Z,7452
2016-07-13T11:20:44.034Z,7712
2016-07-13T11:21:44.062Z,8312
2016-07-13T11:22:44.078Z,10132
2016-07-13T11:23:44.110Z,10176
2016-07-13T11:24:44.128Z,9784
2016-07-13T11:25:44.156Z,8872
2016-07-13T11:26:44.181Z,8684
2016-07-13T11:27:44.201Z,9676
2016-07-13T11:28:44.225Z,9348
2016-07-13T11:29:44.250Z,10048
2016-07-13T11:30:44.260Z,10116
2016-07-13T11:31:44.292Z,9784
2016-07-13T11:32:44.310Z,9892
2016-07-13T11:33:44.346Z,10204
2016-07-13T11:34:44.362Z,9656
2016-07-13T11:35:44.391Z,9860
2016-07-13T11:36:44.397Z,10040
2016-07-13T11:37:44.440Z,10232
2016-07-13T11:38:44.450Z,10300
2016-07-13T11:39:44.476Z,11068
2016-07-13T11:40:44.502Z,10184
2016-07-13T11:41:44.529Z,10232
2016-07-13T11:42:44.557Z,10660
2016-07-13T11:43:44.565Z,11248
2016-07-13T11:44:44.593Z,11280
2016-07-13T11:45:44.615Z,11452
2016-07-13T11:46:44.655Z,10824
2016-07-13T11:47:44.656Z,10908
2016-07-13T11:48:44.698Z,11840
2016-07-13T11:49:44.707Z,11772
2016-07-13T11:50:44.731Z,11628
2016-07-13T11:51:44.765Z,11556
2016-07-13T11:52:44.783Z,11368
2016-07-13T11:53:44.822Z,11292
2016-07-13T11:54:44.816Z,11340
2016-07-13T11:55:44.842Z,11304
2016-07-13T11:56:44.870Z,10040
2016-07-13T11:57:44.904Z,10672
2016-07-13T11:58:44.924Z,10936
2016-07-13T11:59:44.944Z,10820
2016-07-13T12:00:44.973Z,10780
2016-07-13T12:01:44.992Z,10696
2016-07-13T12:02:45.033Z,10648
2016-07-13T12:03:45.044Z,10824
2016-07-13T12:04:45.054Z,10808
2016-07-13T12:05:45.091Z,10240
2016-07-13T12:06:45.111Z,10208
2016-07-13T12:07:45.128Z,10144
2016-07-13T12:08:45.174Z,10008
2016-07-13T12:09:45.179Z,9844
2016-07-13T12:10:45.205Z,9608
2016-07-13T12:11:45.228Z,9444
2016-07-13T12:12:45.251Z,9352
2016-07-13T12:13:45.269Z,9428
2016-07-13T12:14:45.296Z,9616
2016-07-13T12:15:45.318Z,9828
2016-07-13T12:16:45.345Z,10112
2016-07-13T12:17:45.374Z,10936
2016-07-13T12:18:45.387Z,11036
2016-07-13T12:19:45.418Z,11260
2016-07-13T12:20:45.438Z,11112
2016-07-13T12:21:45.460Z,11036
2016-07-13T12:22:45.483Z,10984
2016-07-13T12:23:45.512Z,10728
2016-07-13T12:24:45.534Z,10488
2016-07-13T12:25:45.565Z,10284
2016-07-13T12:26:45.578Z,10120
2016-07-13T12:27:45.606Z,9888
2016-07-13T12:28:45.621Z,9680
2016-07-13T12:29:45.637Z,9480
2016-07-13T12:30:45.674Z,9340
2016-07-13T12:31:45.688Z,9156
2016-07-13T12:32:45.713Z,8996
2016-07-13T12:33:45.752Z,8864
2016-07-13T12:34:45.764Z,8788
2016-07-13T12:35:45.794Z,8720
2016-07-13T12:36:45.809Z,8808
2016-07-13T12:37:45.831Z,8972
2016-07-13T12:38:45.855Z,9216
2016-07-13T12:39:45.885Z,9504
2016-07-13T12:40:45.901Z,9832
2016-07-13T12:41:45.919Z,10164
2016-07-13T12:42:45.959Z,10456
2016-07-13T12:43:45.973Z,10632
2016-07-13T12:44:46.005Z,10780
2016-07-13T12:45:46.018Z,10732
2016-07-13T12:46:46.039Z,10700
2016-07-13T12:47:46.063Z,10644
2016-07-13T12:48:46.090Z,10624
2016-07-13T12:49:46.112Z,10656
2016-07-13T12:50:46.129Z,10684
2016-07-13T12:51:46.152Z,10700
2016-07-13T12:52:46.182Z,10712
2016-07-13T12:53:46.210Z,10868
2016-07-13T12:54:46.233Z,11096
2016-07-13T12:55:46.246Z,11312
2016-07-13T12:56:46.270Z,11524
2016-07-13T12:57:46.294Z,11820
2016-07-13T12:58:46.339Z,12120
2016-07-13T12:59:46.346Z,12412
2016-07-13T13:00:46.359Z,12800
2016-07-13T13:01:46.389Z,13168
2016-07-13T13:02:46.418Z,13536
2016-07-13T13:03:46.435Z,13784
2016-07-13T13:04:46.466Z,13916
2016-07-13T13:05:46.487Z,14124
2016-07-13T13:06:46.494Z,14384
2016-07-13T13:07:46.521Z,14420
2016-07-13T13:08:46.557Z,14632
2016-07-13T13:09:46.575Z,14852
2016-07-13T13:10:46.601Z,14832
2016-07-13T13:11:46.610Z,14196
2016-07-13T13:12:46.649Z,13368
2016-07-13T13:13:46.672Z,15036
2016-07-13T13:14:46.689Z,12816
2016-07-13T13:15:46.718Z,11468
2016-07-13T13:16:46.742Z,15012
2016-07-13T13:17:46.762Z,14988
2016-07-13T13:18:46.789Z,14976
2016-07-13T13:19:46.816Z,11852
2016-07-13T13:20:46.836Z,10704
2016-07-13T13:21:46.865Z,13432
2016-07-13T13:22:46.891Z,12940
2016-07-13T13:23:46.903Z,13220
2016-07-13T13:24:46.923Z,10412
2016-07-13T13:25:46.951Z,12220
2016-07-13T13:26:46.976Z,12844
2016-07-13T13:27:47.005Z,12488
2016-07-13T13:28:47.030Z,13628
2016-07-13T13:29:47.049Z,13224
2016-07-13T13:30:47.070Z,13496
2016-07-13T13:31:47.096Z,10612
2016-07-13T13:32:47.124Z,10024
2016-07-13T13:33:47.140Z,9788
2016-07-13T13:34:47.168Z,9860
2016-07-13T13:35:47.185Z,9596